createdAt,value
2023-07-17T00:00:00.735Z,3.55
2023-07-17T00:05:02.121Z,4.88
2023-07-17T00:10:05.230Z,3.60
2023-07-17T00:15:07.092Z,3.78
2023-07-17T00:20:12.393Z,3.65
2023-07-17T00:25:13.759Z,3.80
2023-07-17T00:30:15.135Z,3.45
2023-07-17T00:35:16.586Z,3.22
2023-07-17T00:40:19.875Z,2.85
2023-07-17T00:45:21.241Z,3.33
2023-07-17T00:50:22.620Z,3.35
2023-07-17T00:55:24.129Z,3.35
2023-07-17T01:00:25.918Z,2.72
2023-07-17T01:05:27.440Z,3.45
2023-07-17T01:10:29.309Z,3.35
2023-07-17T01:15:30.701Z,3.55
2023-07-17T01:20:32.158Z,3.65
2023-07-17T01:25:33.915Z,3.30
2023-07-17T01:30:35.384Z,2.75
2023-07-17T01:35:36.761Z,3.20
2023-07-17T01:40:38.113Z,3.55
2023-07-17T01:45:39.475Z,2.85
2023-07-17T01:50:40.850Z,3.15
2023-07-17T01:55:42.478Z,2.60
2023-07-17T02:00:43.888Z,2.78
2023-07-17T02:05:45.251Z,2.83
2023-07-17T02:10:48.992Z,2.88
2023-07-17T02:15:50.475Z,2.97
2023-07-17T02:20:52.121Z,3.33
2023-07-17T02:25:53.505Z,2.85
2023-07-17T02:30:54.881Z,3.15
2023-07-17T02:35:56.226Z,2.80
2023-07-17T02:40:58.671Z,2.78
2023-07-17T02:46:00.059Z,3.08
2023-07-17T02:51:01.474Z,3.28
2023-07-17T02:56:04.078Z,3.20
2023-07-17T03:01:05.530Z,3.55
2023-07-17T03:06:07.181Z,3.28
2023-07-17T03:11:08.566Z,3.15
2023-07-17T03:16:09.960Z,2.97
2023-07-17T03:21:11.412Z,3.15
2023-07-17T03:26:12.761Z,3.20
2023-07-17T03:31:14.383Z,3.63
2023-07-17T03:36:15.820Z,3.13
2023-07-17T03:41:21.412Z,3.45
2023-07-17T03:46:22.800Z,3.55
2023-07-17T03:51:24.234Z,2.72
2023-07-17T03:56:26.217Z,3.30
2023-07-17T04:01:27.899Z,3.45
2023-07-17T04:06:29.356Z,4.07
2023-07-17T04:11:30.725Z,3.95
2023-07-17T04:16:32.109Z,3.58
2023-07-17T04:21:33.480Z,4.28
2023-07-17T04:26:34.861Z,4.93
2023-07-17T04:31:36.288Z,4.32
2023-07-17T04:36:37.661Z,4.15
2023-07-17T04:41:39.381Z,4.25
2023-07-17T04:46:40.793Z,4.88
2023-07-17T04:51:42.173Z,5.63
2023-07-17T04:56:43.786Z,5.22
2023-07-17T05:01:45.282Z,5.03
2023-07-17T05:06:46.862Z,4.78
2023-07-17T05:11:49.023Z,5.60
2023-07-17T05:16:50.433Z,5.47
2023-07-17T05:21:51.816Z,5.70
2023-07-17T05:26:53.413Z,5.60
2023-07-17T05:31:54.790Z,5.15
2023-07-17T05:36:56.193Z,5.07
2023-07-17T05:41:57.776Z,5.20
2023-07-17T05:46:59.259Z,3.83
2023-07-17T05:52:00.734Z,4.15
2023-07-17T05:57:02.141Z,4.78
2023-07-17T06:02:03.994Z,5.15
2023-07-17T06:07:05.610Z,3.88
2023-07-17T06:12:07.319Z,4.32
2023-07-17T06:17:08.694Z,4.22
2023-07-17T06:22:10.130Z,4.13
2023-07-17T06:27:11.786Z,3.78
2023-07-17T06:32:13.217Z,4.15
2023-07-17T06:37:14.657Z,3.72
2023-07-17T06:42:16.044Z,2.92
2023-07-17T06:47:30.251Z,3.08
2023-07-17T06:52:39.505Z,3.22
2023-07-17T06:57:41.114Z,2.83
2023-07-17T07:02:42.630Z,2.53
2023-07-17T07:07:44.089Z,3.10
2023-07-17T07:12:45.634Z,2.78
2023-07-17T07:17:47.081Z,2.22
2023-07-17T07:22:48.560Z,2.75
2023-07-17T07:27:50.061Z,3.55
2023-07-17T07:32:51.528Z,2.75
2023-07-17T07:37:52.942Z,3.15
2023-07-17T07:42:54.376Z,2.58
2023-07-17T07:47:57.808Z,2.88
2023-07-17T07:52:59.182Z,3.03
2023-07-17T07:58:00.655Z,3.10
2023-07-17T08:03:02.458Z,2.95
2023-07-17T08:08:03.980Z,3.38
2023-07-17T08:13:05.852Z,2.97
2023-07-17T08:18:07.257Z,3.30
2023-07-17T08:23:08.991Z,3.20
2023-07-17T08:28:10.394Z,3.03
2023-07-17T08:33:13.285Z,2.90
2023-07-17T08:38:14.687Z,2.60
2023-07-17T08:43:16.381Z,3.17
2023-07-17T08:48:17.790Z,2.47
2023-07-17T08:53:20.204Z,3.47
2023-07-17T08:58:23.139Z,2.38
2023-07-17T09:03:24.739Z,3.10
2023-07-17T09:08:26.221Z,2.92
2023-07-17T09:13:36.254Z,3.45
2023-07-17T09:18:37.612Z,2.97
2023-07-17T09:23:40.263Z,4.25
2023-07-17T09:28:52.226Z,2.88
2023-07-17T09:33:54.148Z,2.58
2023-07-17T09:38:56.586Z,2.50
2023-07-17T09:44:04.947Z,3.47
2023-07-17T09:49:10.048Z,2.90
2023-07-17T09:54:12.443Z,3.00
2023-07-17T09:59:17.416Z,2.83
2023-07-17T10:04:24.221Z,3.30
2023-07-17T10:09:26.615Z,3.40
2023-07-17T10:14:28.320Z,2.72
2023-07-17T10:19:49.940Z,2.50
2023-07-17T10:24:51.313Z,2.72
2023-07-17T10:29:52.669Z,2.38
2023-07-17T10:34:54.566Z,1.95
2023-07-17T10:40:09.596Z,3.05
2023-07-17T10:45:11.563Z,2.42
2023-07-17T10:50:12.991Z,3.30
2023-07-17T10:55:14.481Z,2.30
2023-07-17T11:00:16.211Z,2.70
2023-07-17T11:05:17.583Z,2.13
2023-07-17T11:10:18.998Z,2.17
2023-07-17T11:15:22.478Z,2.22
2023-07-17T11:20:23.873Z,2.20
2023-07-17T11:25:26.687Z,1.20
2023-07-17T11:30:28.866Z,1.00
2023-07-17T11:35:40.081Z,1.30
2023-07-17T11:40:54.331Z,1.40
2023-07-17T11:46:00.288Z,1.45
2023-07-17T11:51:03.370Z,1.63
2023-07-17T11:56:05.810Z,1.50
2023-07-17T12:01:07.285Z,1.35
2023-07-17T12:06:08.691Z,1.77
2023-07-17T12:11:10.122Z,1.60
2023-07-17T12:16:12.435Z,2.00
2023-07-17T12:21:19.150Z,1.65
2023-07-17T12:26:23.284Z,2.17
2023-07-17T12:31:25.526Z,1.70
2023-07-17T12:36:26.954Z,1.63
2023-07-17T12:41:28.371Z,1.58
2023-07-17T12:46:29.824Z,1.38
2023-07-17T12:51:31.276Z,1.33
2023-07-17T12:56:33.058Z,1.73
2023-07-17T13:01:35.452Z,1.45
2023-07-17T13:06:36.982Z,1.73
2023-07-17T13:11:39.201Z,1.40
2023-07-17T13:16:40.663Z,1.60
2023-07-17T13:21:42.033Z,1.40
2023-07-17T13:26:43.745Z,1.80
2023-07-17T13:31:45.283Z,1.58
2023-07-17T13:36:46.983Z,1.58
2023-07-17T13:41:49.573Z,2.13
2023-07-17T13:46:51.244Z,1.42
2023-07-17T13:51:52.762Z,1.80
2023-07-17T14:01:58.509Z,1.48
2023-07-17T14:06:59.966Z,1.90
2023-07-17T14:12:01.426Z,1.98
2023-07-17T14:17:02.864Z,2.33
2023-07-17T14:22:04.394Z,3.03
2023-07-17T14:27:06.104Z,1.77
2023-07-17T14:32:07.897Z,2.08
2023-07-17T14:37:09.307Z,1.83
2023-07-17T14:42:10.709Z,2.17
2023-07-17T14:47:12.152Z,2.08
2023-07-17T14:52:13.581Z,1.75
2023-07-17T14:57:15.111Z,1.52
2023-07-17T15:02:16.538Z,1.80
2023-07-17T15:07:17.920Z,1.92
2023-07-17T15:12:19.289Z,1.70
2023-07-17T15:17:20.680Z,1.90
2023-07-17T15:22:22.055Z,2.05
2023-07-17T15:27:23.558Z,2.40
2023-07-17T15:32:25.017Z,2.17
2023-07-17T15:37:26.456Z,2.15
2023-07-17T15:42:27.903Z,1.90
2023-07-17T15:47:29.392Z,2.00
2023-07-17T15:52:31.355Z,1.67
2023-07-17T15:57:32.771Z,1.50
2023-07-17T16:02:35.049Z,2.80
2023-07-17T16:07:39.373Z,2.38
2023-07-17T16:12:40.824Z,1.98
2023-07-17T16:17:42.248Z,1.73
2023-07-17T16:22:43.669Z,2.03
2023-07-17T16:27:45.073Z,2.03
2023-07-17T16:32:46.526Z,2.08
2023-07-17T16:37:48.139Z,2.30
2023-07-17T16:42:49.716Z,2.17
2023-07-17T16:47:51.589Z,2.20
2023-07-17T16:52:53.166Z,1.88
2023-07-17T16:57:54.565Z,2.00
2023-07-17T17:02:56.110Z,1.70
2023-07-17T17:07:58.984Z,2.33
2023-07-17T17:13:00.521Z,1.83
2023-07-17T17:18:01.984Z,1.75
2023-07-17T17:23:03.521Z,2.17
2023-07-17T17:28:04.943Z,1.83
2023-07-17T17:33:06.365Z,2.03
2023-07-17T17:38:10.114Z,2.10
2023-07-17T17:43:11.626Z,2.33
2023-07-17T17:48:14.432Z,2.35
2023-07-17T17:53:15.986Z,2.20
2023-07-17T17:58:17.772Z,2.35
2023-07-17T18:03:20.365Z,2.17
2023-07-17T18:08:21.910Z,2.42
2023-07-17T18:13:23.557Z,2.10
2023-07-17T18:18:25.037Z,1.73
2023-07-17T18:23:26.515Z,1.70
2023-07-17T18:28:28.186Z,1.48
2023-07-17T18:33:29.609Z,1.38
2023-07-17T18:38:31.014Z,1.50
2023-07-17T18:43:32.472Z,1.60
2023-07-17T18:48:33.867Z,2.42
2023-07-17T18:53:35.302Z,2.00
2023-07-17T18:58:37.147Z,1.88
2023-07-17T19:03:38.615Z,2.08
2023-07-17T19:08:40.065Z,2.25
2023-07-17T19:13:41.438Z,2.30
2023-07-17T19:18:42.820Z,2.90
2023-07-17T19:23:49.402Z,2.15
2023-07-17T19:28:50.865Z,2.30
2023-07-17T19:33:52.662Z,3.10
2023-07-17T19:38:56.410Z,2.65
2023-07-17T19:43:58.717Z,2.58
2023-07-17T19:49:00.188Z,3.17
2023-07-17T19:54:01.700Z,2.90
2023-07-17T19:59:03.101Z,2.33
2023-07-17T20:04:04.842Z,3.13
2023-07-17T20:09:06.538Z,3.35
2023-07-17T20:14:07.946Z,2.83
2023-07-17T20:19:09.354Z,3.42
2023-07-17T20:24:10.749Z,3.45
2023-07-17T20:29:12.174Z,3.08
2023-07-17T20:34:13.560Z,2.90
2023-07-17T20:39:15.831Z,3.42
2023-07-17T20:44:17.322Z,2.90
2023-07-17T20:49:18.734Z,2.88
2023-07-17T20:54:23.110Z,3.30
2023-07-17T21:04:25.790Z,2.85
2023-07-17T21:09:27.174Z,3.20
2023-07-17T21:14:29.108Z,3.05
2023-07-17T21:19:31.441Z,3.20
2023-07-17T21:24:33.335Z,3.58
2023-07-17T21:29:34.719Z,3.25
2023-07-17T21:34:36.202Z,4.00
2023-07-17T21:39:37.591Z,3.53
2023-07-17T21:44:39.068Z,3.42
2023-07-17T21:49:40.468Z,2.90
2023-07-17T21:54:42.377Z,3.03
2023-07-17T21:59:44.422Z,3.75
2023-07-17T22:04:46.820Z,3.67
2023-07-17T22:09:51.360Z,3.83
2023-07-17T22:14:53.247Z,3.47
2023-07-17T22:19:54.636Z,3.40
2023-07-17T22:24:56.676Z,2.90
2023-07-17T22:30:01.131Z,2.90
2023-07-17T22:35:02.609Z,3.95
2023-07-17T22:40:05.491Z,3.63
2023-07-17T22:45:07.425Z,3.47
2023-07-17T22:50:09.064Z,2.97
2023-07-17T22:55:13.039Z,3.63
2023-07-17T23:00:14.624Z,3.13
2023-07-17T23:05:16.048Z,2.63
2023-07-17T23:10:17.435Z,2.55
2023-07-17T23:15:18.863Z,2.90
2023-07-17T23:20:20.674Z,2.92
2023-07-17T23:25:22.264Z,3.33
2023-07-17T23:30:23.684Z,3.25
2023-07-17T23:35:25.099Z,3.70
2023-07-17T23:40:26.600Z,3.53
2023-07-17T23:45:28.015Z,2.97
2023-07-17T23:50:29.469Z,3.30
2023-07-17T23:55:32.375Z,3.30
